sensor_id;sensor_type;location;lat;lon;timestamp;pressure;altitude;pressure_sealevel;temperature;humidity
59951;BME280;45812;53.540;9.774;2023-07-09T00:00:58;101962.94;;;23.55;54.46
59951;BME280;45812;53.540;9.774;2023-07-09T00:03:24;101960.66;;;23.52;53.66
59951;BME280;45812;53.540;9.774;2023-07-09T00:05:49;101966.16;;;23.46;53.14
59951;BME280;45812;53.540;9.774;2023-07-09T00:08:27;101967.22;;;23.38;53.84
59951;BME280;45812;53.540;9.774;2023-07-09T00:10:54;101959.06;;;23.38;53.99
59951;BME280;45812;53.540;9.774;2023-07-09T00:13:21;101957.69;;;23.29;54.52
59951;BME280;45812;53.540;9.774;2023-07-09T00:15:46;101970.66;;;23.27;54.67
59951;BME280;45812;53.540;9.774;2023-07-09T00:18:11;101975.66;;;23.23;53.97
59951;BME280;45812;53.540;9.774;2023-07-09T00:20:36;101976.13;;;23.20;53.93
59951;BME280;45812;53.540;9.774;2023-07-09T00:23:02;101979.72;;;23.14;54.05
59951;BME280;45812;53.540;9.774;2023-07-09T00:25:30;101976.59;;;23.11;54.66
59951;BME280;45812;53.540;9.774;2023-07-09T00:27:56;101973.72;;;23.06;55.21
59951;BME280;45812;53.540;9.774;2023-07-09T00:30:22;101977.44;;;23.05;54.98
59951;BME280;45812;53.540;9.774;2023-07-09T00:32:49;101960.97;;;23.00;54.60
59951;BME280;45812;53.540;9.774;2023-07-09T00:35:15;101968.94;;;22.94;54.38
59951;BME280;45812;53.540;9.774;2023-07-09T00:37:43;101975.03;;;22.90;54.96
59951;BME280;45812;53.540;9.774;2023-07-09T00:40:18;101980.88;;;22.87;55.33
59951;BME280;45812;53.540;9.774;2023-07-09T00:42:48;101968.78;;;22.83;55.92
59951;BME280;45812;53.540;9.774;2023-07-09T00:47:51;101971.09;;;22.73;56.09
59951;BME280;45812;53.540;9.774;2023-07-09T00:52:53;101968.41;;;22.66;55.92
59951;BME280;45812;53.540;9.774;2023-07-09T00:55:23;101967.38;;;22.60;56.43
59951;BME280;45812;53.540;9.774;2023-07-09T00:57:51;101964.47;;;22.55;56.67
59951;BME280;45812;53.540;9.774;2023-07-09T01:00:22;101972.22;;;22.52;57.59
59951;BME280;45812;53.540;9.774;2023-07-09T01:02:50;101961.97;;;22.47;56.99
59951;BME280;45812;53.540;9.774;2023-07-09T01:05:16;101961.78;;;22.42;57.62
59951;BME280;45812;53.540;9.774;2023-07-09T01:07:42;101953.25;;;22.39;57.71
59951;BME280;45812;53.540;9.774;2023-07-09T01:10:14;101963.91;;;22.33;58.01
59951;BME280;45812;53.540;9.774;2023-07-09T01:12:40;101960.78;;;22.30;58.27
59951;BME280;45812;53.540;9.774;2023-07-09T01:15:06;101963.09;;;22.26;58.16
59951;BME280;45812;53.540;9.774;2023-07-09T01:17:32;101973.75;;;22.21;57.78
59951;BME280;45812;53.540;9.774;2023-07-09T01:19:58;101961.66;;;22.17;58.40
59951;BME280;45812;53.540;9.774;2023-07-09T01:22:23;101957.50;;;22.15;58.78
59951;BME280;45812;53.540;9.774;2023-07-09T01:27:33;101959.16;;;22.09;58.46
59951;BME280;45812;53.540;9.774;2023-07-09T01:30:01;101958.31;;;22.02;58.26
59951;BME280;45812;53.540;9.774;2023-07-09T01:32:27;101963.31;;;21.98;58.34
59951;BME280;45812;53.540;9.774;2023-07-09T01:34:55;101957.66;;;21.93;58.87
59951;BME280;45812;53.540;9.774;2023-07-09T01:37:24;101961.63;;;21.91;58.91
59951;BME280;45812;53.540;9.774;2023-07-09T01:39:51;101966.44;;;21.89;59.29
59951;BME280;45812;53.540;9.774;2023-07-09T01:42:17;101962.91;;;21.82;58.48
59951;BME280;45812;53.540;9.774;2023-07-09T01:44:44;101961.44;;;21.79;58.81
59951;BME280;45812;53.540;9.774;2023-07-09T01:47:11;101967.47;;;21.74;58.59
59951;BME280;45812;53.540;9.774;2023-07-09T01:49:37;101968.94;;;21.70;58.78
59951;BME280;45812;53.540;9.774;2023-07-09T01:52:05;101972.91;;;21.68;58.69
59951;BME280;45812;53.540;9.774;2023-07-09T01:54:33;101984.16;;;21.65;58.75
59951;BME280;45812;53.540;9.774;2023-07-09T01:59:38;101965.38;;;21.57;59.16
59951;BME280;45812;53.540;9.774;2023-07-09T02:02:06;101959.53;;;21.53;59.71
59951;BME280;45812;53.540;9.774;2023-07-09T02:04:31;101957.03;;;21.52;60.06
59951;BME280;45812;53.540;9.774;2023-07-09T02:06:56;101954.13;;;21.46;60.35
59951;BME280;45812;53.540;9.774;2023-07-09T02:09:22;101949.94;;;21.44;60.88
59951;BME280;45812;53.540;9.774;2023-07-09T02:11:47;101946.22;;;21.38;61.15
59951;BME280;45812;53.540;9.774;2023-07-09T02:14:12;101958.47;;;21.34;60.88
59951;BME280;45812;53.540;9.774;2023-07-09T02:16:38;101956.59;;;21.28;60.66
59951;BME280;45812;53.540;9.774;2023-07-09T02:19:03;101960.75;;;21.24;60.56
59951;BME280;45812;53.540;9.774;2023-07-09T02:21:28;101965.72;;;21.21;60.72
59951;BME280;45812;53.540;9.774;2023-07-09T02:23:55;101958.19;;;21.16;61.02
59951;BME280;45812;53.540;9.774;2023-07-09T02:26:20;101958.81;;;21.11;60.72
59951;BME280;45812;53.540;9.774;2023-07-09T02:28:46;101959.44;;;21.07;60.59
59951;BME280;45812;53.540;9.774;2023-07-09T02:31:11;101964.00;;;21.06;60.60
59951;BME280;45812;53.540;9.774;2023-07-09T02:33:36;101961.72;;;21.03;60.56
59951;BME280;45812;53.540;9.774;2023-07-09T02:36:01;101964.41;;;21.03;60.31
59951;BME280;45812;53.540;9.774;2023-07-09T02:38:27;101959.38;;;21.00;60.26
59951;BME280;45812;53.540;9.774;2023-07-09T02:40:52;101956.88;;;20.99;60.15
59951;BME280;45812;53.540;9.774;2023-07-09T02:43:18;101956.47;;;20.95;60.57
59951;BME280;45812;53.540;9.774;2023-07-09T02:45:43;101957.72;;;20.93;60.08
59951;BME280;45812;53.540;9.774;2023-07-09T02:48:09;101958.13;;;20.90;60.50
59951;BME280;45812;53.540;9.774;2023-07-09T02:50:34;101967.47;;;20.87;61.11
59951;BME280;45812;53.540;9.774;2023-07-09T02:52:59;101959.78;;;20.84;61.26
59951;BME280;45812;53.540;9.774;2023-07-09T02:55:25;101959.31;;;20.80;60.80
59951;BME280;45812;53.540;9.774;2023-07-09T02:57:50;101954.31;;;20.77;60.83
59951;BME280;45812;53.540;9.774;2023-07-09T03:00:16;101954.72;;;20.74;61.44
59951;BME280;45812;53.540;9.774;2023-07-09T03:02:41;101959.72;;;20.71;61.49
59951;BME280;45812;53.540;9.774;2023-07-09T03:05:06;101958.44;;;20.67;61.02
59951;BME280;45812;53.540;9.774;2023-07-09T03:07:34;101965.72;;;20.66;61.19
59951;BME280;45812;53.540;9.774;2023-07-09T03:09:59;101971.72;;;20.62;60.87
59951;BME280;45812;53.540;9.774;2023-07-09T03:12:25;101969.22;;;20.60;61.30
59951;BME280;45812;53.540;9.774;2023-07-09T03:14:50;101965.88;;;20.58;60.98
59951;BME280;45812;53.540;9.774;2023-07-09T03:17:15;101969.63;;;20.57;60.76
59951;BME280;45812;53.540;9.774;2023-07-09T03:19:41;101964.63;;;20.54;61.10
59951;BME280;45812;53.540;9.774;2023-07-09T03:22:06;101967.53;;;20.52;61.83
59951;BME280;45812;53.540;9.774;2023-07-09T03:24:31;101967.09;;;20.49;60.87
59951;BME280;45812;53.540;9.774;2023-07-09T03:26:56;101973.13;;;20.51;60.85
59951;BME280;45812;53.540;9.774;2023-07-09T03:29:22;101976.03;;;20.49;61.39
59951;BME280;45812;53.540;9.774;2023-07-09T03:31:47;101977.06;;;20.48;61.56
59951;BME280;45812;53.540;9.774;2023-07-09T03:34:14;101983.72;;;20.46;61.11
59951;BME280;45812;53.540;9.774;2023-07-09T03:36:40;101988.09;;;20.47;61.65
59951;BME280;45812;53.540;9.774;2023-07-09T03:39:06;101986.22;;;20.47;61.20
59951;BME280;45812;53.540;9.774;2023-07-09T03:41:32;101981.84;;;20.46;61.48
59951;BME280;45812;53.540;9.774;2023-07-09T03:43:57;101986.59;;;20.44;61.49
59951;BME280;45812;53.540;9.774;2023-07-09T03:46:23;101983.25;;;20.42;61.46
59951;BME280;45812;53.540;9.774;2023-07-09T03:48:48;101994.72;;;20.44;61.11
59951;BME280;45812;53.540;9.774;2023-07-09T03:51:15;101990.13;;;20.45;61.02
59951;BME280;45812;53.540;9.774;2023-07-09T03:53:40;101983.25;;;20.42;61.48
59951;BME280;45812;53.540;9.774;2023-07-09T03:56:06;101989.50;;;20.43;60.96
59951;BME280;45812;53.540;9.774;2023-07-09T03:58:32;101983.84;;;20.38;60.77
59951;BME280;45812;53.540;9.774;2023-07-09T04:00:57;101988.22;;;20.39;61.15
59951;BME280;45812;53.540;9.774;2023-07-09T04:03:22;102000.91;;;20.38;61.31
59951;BME280;45812;53.540;9.774;2023-07-09T04:05:48;101990.06;;;20.38;61.32
59951;BME280;45812;53.540;9.774;2023-07-09T04:08:14;102001.72;;;20.39;61.33
59951;BME280;45812;53.540;9.774;2023-07-09T04:10:39;102003.59;;;20.38;60.81
59951;BME280;45812;53.540;9.774;2023-07-09T04:13:05;102003.59;;;20.38;61.50
59951;BME280;45812;53.540;9.774;2023-07-09T04:15:30;101998.81;;;20.40;61.33
59951;BME280;45812;53.540;9.774;2023-07-09T04:17:55;101998.81;;;20.40;61.16
59951;BME280;45812;53.540;9.774;2023-07-09T04:20:21;101992.59;;;20.40;60.92
59951;BME280;45812;53.540;9.774;2023-07-09T04:22:46;101995.28;;;20.40;60.63
59951;BME280;45812;53.540;9.774;2023-07-09T04:25:12;101990.72;;;20.40;61.04
59951;BME280;45812;53.540;9.774;2023-07-09T04:27:38;101991.56;;;20.41;60.74
59951;BME280;45812;53.540;9.774;2023-07-09T04:30:05;101993.25;;;20.42;60.80
59951;BME280;45812;53.540;9.774;2023-07-09T04:32:30;101988.66;;;20.42;60.60
59951;BME280;45812;53.540;9.774;2023-07-09T04:34:56;101983.06;;;20.44;60.10
59951;BME280;45812;53.540;9.774;2023-07-09T04:37:21;101982.91;;;20.45;60.66
59951;BME280;45812;53.540;9.774;2023-07-09T04:39:47;101980.81;;;20.47;60.61
59951;BME280;45812;53.540;9.774;2023-07-09T04:42:15;101984.16;;;20.49;60.58
59951;BME280;45812;53.540;9.774;2023-07-09T04:44:41;101989.16;;;20.52;60.24
59951;BME280;45812;53.540;9.774;2023-07-09T04:47:07;101986.06;;;20.55;59.96
59951;BME280;45812;53.540;9.774;2023-07-09T04:49:33;101979.59;;;20.56;60.03
59951;BME280;45812;53.540;9.774;2023-07-09T04:51:59;101989.19;;;20.59;59.84
59951;BME280;45812;53.540;9.774;2023-07-09T04:54:25;101990.44;;;20.63;58.99
59951;BME280;45812;53.540;9.774;2023-07-09T04:56:50;101993.00;;;20.65;58.47
59951;BME280;45812;53.540;9.774;2023-07-09T04:59:16;101993.63;;;20.67;57.96
59951;BME280;45812;53.540;9.774;2023-07-09T05:01:41;101993.41;;;20.68;57.98
59951;BME280;45812;53.540;9.774;2023-07-09T05:04:06;101995.09;;;20.69;57.31
59951;BME280;45812;53.540;9.774;2023-07-09T05:06:32;101990.31;;;20.71;57.21
59951;BME280;45812;53.540;9.774;2023-07-09T05:08:58;102004.91;;;20.77;57.34
59951;BME280;45812;53.540;9.774;2023-07-09T05:11:23;102004.28;;;20.81;57.89
59951;BME280;45812;53.540;9.774;2023-07-09T05:13:48;101997.47;;;20.85;57.38
59951;BME280;45812;53.540;9.774;2023-07-09T05:16:13;101995.19;;;20.89;57.33
59951;BME280;45812;53.540;9.774;2023-07-09T05:18:39;101996.63;;;20.92;57.32
59951;BME280;45812;53.540;9.774;2023-07-09T05:21:04;101994.78;;;20.92;57.20
59951;BME280;45812;53.540;9.774;2023-07-09T05:23:29;101991.66;;;20.95;57.17
59951;BME280;45812;53.540;9.774;2023-07-09T05:26:02;101995.00;;;20.97;57.25
59951;BME280;45812;53.540;9.774;2023-07-09T05:28:28;101991.69;;;21.02;57.29
59951;BME280;45812;53.540;9.774;2023-07-09T05:30:53;101990.25;;;21.06;56.74
59951;BME280;45812;53.540;9.774;2023-07-09T05:33:19;101991.09;;;21.06;56.32
59951;BME280;45812;53.540;9.774;2023-07-09T05:35:45;101986.09;;;21.10;56.58
59951;BME280;45812;53.540;9.774;2023-07-09T05:38:11;101992.56;;;21.15;56.67
59951;BME280;45812;53.540;9.774;2023-07-09T05:40:36;101989.44;;;21.18;55.65
59951;BME280;45812;53.540;9.774;2023-07-09T05:43:01;101997.38;;;21.20;55.18
59951;BME280;45812;53.540;9.774;2023-07-09T05:45:27;101990.72;;;21.23;55.59
59951;BME280;45812;53.540;9.774;2023-07-09T05:47:52;101982.84;;;21.28;55.88
59951;BME280;45812;53.540;9.774;2023-07-09T05:50:17;101985.75;;;21.33;55.46
59951;BME280;45812;53.540;9.774;2023-07-09T05:52:43;101993.47;;;21.36;55.22
59951;BME280;45812;53.540;9.774;2023-07-09T05:55:08;101986.19;;;21.36;54.45
59951;BME280;45812;53.540;9.774;2023-07-09T05:57:33;101989.53;;;21.38;54.53
59951;BME280;45812;53.540;9.774;2023-07-09T05:59:59;101992.66;;;21.42;54.25
59951;BME280;45812;53.540;9.774;2023-07-09T06:02:24;101999.13;;;21.48;54.42
59951;BME280;45812;53.540;9.774;2023-07-09T06:04:49;101996.84;;;21.51;54.50
59951;BME280;45812;53.540;9.774;2023-07-09T06:07:15;101996.22;;;21.56;54.87
59951;BME280;45812;53.540;9.774;2023-07-09T06:09:40;101998.34;;;21.60;54.68
59951;BME280;45812;53.540;9.774;2023-07-09T06:12:06;102002.09;;;21.66;54.95
59951;BME280;45812;53.540;9.774;2023-07-09T06:14:32;101994.16;;;21.71;55.06
59951;BME280;45812;53.540;9.774;2023-07-09T06:16:58;101997.72;;;21.78;55.09
59951;BME280;45812;53.540;9.774;2023-07-09T06:19:24;102001.47;;;21.84;53.62
59951;BME280;45812;53.540;9.774;2023-07-09T06:21:49;102000.44;;;21.85;53.72
59951;BME280;45812;53.540;9.774;2023-07-09T06:24:14;102004.38;;;21.89;54.00
59951;BME280;45812;53.540;9.774;2023-07-09T06:26:40;102010.00;;;21.94;54.71
59951;BME280;45812;53.540;9.774;2023-07-09T06:29:05;102005.88;;;21.98;53.48
59951;BME280;45812;53.540;9.774;2023-07-09T06:31:30;101999.59;;;22.04;53.60
59951;BME280;45812;53.540;9.774;2023-07-09T06:33:56;102001.28;;;22.12;54.13
59951;BME280;45812;53.540;9.774;2023-07-09T06:36:21;101997.13;;;22.16;54.36
59951;BME280;45812;53.540;9.774;2023-07-09T06:38:46;102004.63;;;22.20;54.98
59951;BME280;45812;53.540;9.774;2023-07-09T06:41:15;102011.91;;;22.26;55.90
59951;BME280;45812;53.540;9.774;2023-07-09T06:43:40;102007.53;;;22.32;56.13
59951;BME280;45812;53.540;9.774;2023-07-09T06:46:08;102007.72;;;22.37;56.23
59951;BME280;45812;53.540;9.774;2023-07-09T06:48:34;102003.94;;;22.45;56.89
59951;BME280;45812;53.540;9.774;2023-07-09T06:51:00;102005.19;;;22.49;56.89
59951;BME280;45812;53.540;9.774;2023-07-09T06:53:27;102008.13;;;22.54;56.45
59951;BME280;45812;53.540;9.774;2023-07-09T06:55:53;102004.97;;;22.57;55.80
59951;BME280;45812;53.540;9.774;2023-07-09T06:58:21;102014.78;;;22.58;54.26
59951;BME280;45812;53.540;9.774;2023-07-09T07:00:48;102011.63;;;22.61;55.67
59951;BME280;45812;53.540;9.774;2023-07-09T07:03:14;102012.88;;;22.65;56.48
59951;BME280;45812;53.540;9.774;2023-07-09T07:05:47;102016.03;;;22.69;56.77
59951;BME280;45812;53.540;9.774;2023-07-09T07:08:16;102014.97;;;22.70;55.92
59951;BME280;45812;53.540;9.774;2023-07-09T07:10:43;102015.97;;;22.75;55.63
59951;BME280;45812;53.540;9.774;2023-07-09T07:13:09;102017.84;;;22.81;56.85
59951;BME280;45812;53.540;9.774;2023-07-09T07:15:37;102007.00;;;22.88;57.69
59951;BME280;45812;53.540;9.774;2023-07-09T07:18:02;102013.00;;;22.96;57.92
59951;BME280;45812;53.540;9.774;2023-07-09T07:20:29;102008.16;;;23.05;57.61
59951;BME280;45812;53.540;9.774;2023-07-09T07:22:54;102011.47;;;23.14;57.30
59951;BME280;45812;53.540;9.774;2023-07-09T07:25:19;102004.34;;;23.19;57.42
59951;BME280;45812;53.540;9.774;2023-07-09T07:27:45;102008.09;;;23.25;58.03
59951;BME280;45812;53.540;9.774;2023-07-09T07:30:10;102006.97;;;23.33;58.12
59951;BME280;45812;53.540;9.774;2023-07-09T07:32:38;102010.69;;;23.38;56.77
59951;BME280;45812;53.540;9.774;2023-07-09T07:35:03;102005.47;;;23.43;56.44
59951;BME280;45812;53.540;9.774;2023-07-09T07:37:29;101994.53;;;23.50;56.50
59951;BME280;45812;53.540;9.774;2023-07-09T07:39:54;102004.75;;;23.54;55.20
59951;BME280;45812;53.540;9.774;2023-07-09T07:42:20;102006.84;;;23.59;56.02
59951;BME280;45812;53.540;9.774;2023-07-09T07:44:45;101999.94;;;23.63;55.69
59951;BME280;45812;53.540;9.774;2023-07-09T07:47:10;101996.09;;;23.71;55.13
59951;BME280;45812;53.540;9.774;2023-07-09T07:49:37;101996.88;;;23.78;56.08
59951;BME280;45812;53.540;9.774;2023-07-09T07:52:02;101995.78;;;23.85;57.36
59951;BME280;45812;53.540;9.774;2023-07-09T07:54:29;101996.53;;;23.93;56.59
59951;BME280;45812;53.540;9.774;2023-07-09T07:56:54;101991.25;;;23.98;53.94
59951;BME280;45812;53.540;9.774;2023-07-09T07:59:19;101995.00;;;24.03;54.38
59951;BME280;45812;53.540;9.774;2023-07-09T08:01:45;101991.97;;;24.11;54.53
59951;BME280;45812;53.540;9.774;2023-07-09T08:04:10;101990.25;;;24.17;52.85
59951;BME280;45812;53.540;9.774;2023-07-09T08:06:35;101993.97;;;24.23;53.13
59951;BME280;45812;53.540;9.774;2023-07-09T08:09:00;102000.41;;;24.28;51.69
59951;BME280;45812;53.540;9.774;2023-07-09T08:11:26;101997.03;;;24.33;52.46
59951;BME280;45812;53.540;9.774;2023-07-09T08:13:53;101993.19;;;24.40;52.80
59951;BME280;45812;53.540;9.774;2023-07-09T08:16:18;101990.63;;;24.45;51.76
59951;BME280;45812;53.540;9.774;2023-07-09T08:18:43;101992.44;;;24.52;51.75
59951;BME280;45812;53.540;9.774;2023-07-09T08:21:09;101994.28;;;24.58;51.23
59951;BME280;45812;53.540;9.774;2023-07-09T08:23:34;101993.97;;;24.66;51.85
59951;BME280;45812;53.540;9.774;2023-07-09T08:26:01;101994.50;;;24.74;53.73
59951;BME280;45812;53.540;9.774;2023-07-09T08:28:28;101995.84;;;24.84;51.95
59951;BME280;45812;53.540;9.774;2023-07-09T08:30:54;102000.75;;;24.93;52.44
59951;BME280;45812;53.540;9.774;2023-07-09T08:33:20;101999.41;;;25.02;50.64
59951;BME280;45812;53.540;9.774;2023-07-09T08:35:49;101999.94;;;25.11;52.44
59951;BME280;45812;53.540;9.774;2023-07-09T08:38:15;101993.09;;;25.20;51.96
59951;BME280;45812;53.540;9.774;2023-07-09T08:40:40;101991.72;;;25.29;52.05
59951;BME280;45812;53.540;9.774;2023-07-09T08:43:21;101989.84;;;25.42;51.62
59951;BME280;45812;53.540;9.774;2023-07-09T08:46:03;101985.25;;;25.54;50.99
59951;BME280;45812;53.540;9.774;2023-07-09T08:48:33;101988.66;;;25.68;51.59
59951;BME280;45812;53.540;9.774;2023-07-09T08:51:24;101982.72;;;25.82;51.60
59951;BME280;45812;53.540;9.774;2023-07-09T08:53:57;101984.16;;;25.96;51.10
59951;BME280;45812;53.540;9.774;2023-07-09T08:56:25;101986.19;;;26.13;49.77
59951;BME280;45812;53.540;9.774;2023-07-09T08:58:53;101973.97;;;26.27;49.90
59951;BME280;45812;53.540;9.774;2023-07-09T09:01:23;101976.00;;;26.43;49.04
59951;BME280;45812;53.540;9.774;2023-07-09T09:03:51;101969.19;;;26.58;48.26
59951;BME280;45812;53.540;9.774;2023-07-09T09:06:26;101981.03;;;26.75;48.56
59951;BME280;45812;53.540;9.774;2023-07-09T09:11:44;101968.34;;;27.09;48.42
59951;BME280;45812;53.540;9.774;2023-07-09T09:14:33;101978.16;;;27.22;48.27
59951;BME280;45812;53.540;9.774;2023-07-09T09:16:56;101971.78;;;27.33;47.13
59951;BME280;45812;53.540;9.774;2023-07-09T09:19:27;101970.72;;;27.34;45.32
59951;BME280;45812;53.540;9.774;2023-07-09T09:21:58;101975.72;;;27.37;45.55
59951;BME280;45812;53.540;9.774;2023-07-09T09:27:29;101975.63;;;27.49;45.13
59951;BME280;45812;53.540;9.774;2023-07-09T09:29:55;101972.25;;;27.58;45.54
59951;BME280;45812;53.540;9.774;2023-07-09T09:32:27;101963.75;;;27.71;44.66
59951;BME280;45812;53.540;9.774;2023-07-09T09:34:53;101974.91;;;27.87;45.33
59951;BME280;45812;53.540;9.774;2023-07-09T09:37:37;101973.25;;;28.02;44.66
59951;BME280;45812;53.540;9.774;2023-07-09T09:40:02;101968.25;;;28.16;43.48
59951;BME280;45812;53.540;9.774;2023-07-09T09:42:28;101961.88;;;28.27;44.03
59951;BME280;45812;53.540;9.774;2023-07-09T09:44:54;101963.72;;;28.44;44.04
59951;BME280;45812;53.540;9.774;2023-07-09T09:47:20;101963.09;;;28.58;44.56
59951;BME280;45812;53.540;9.774;2023-07-09T09:49:46;101963.88;;;28.76;43.60
59951;BME280;45812;53.540;9.774;2023-07-09T09:52:16;101960.50;;;28.90;42.80
59951;BME280;45812;53.540;9.774;2023-07-09T09:55:02;101964.59;;;29.15;44.50
59951;BME280;45812;53.540;9.774;2023-07-09T09:57:27;101964.53;;;29.37;43.57
59951;BME280;45812;53.540;9.774;2023-07-09T09:59:56;101964.44;;;29.53;42.77
59951;BME280;45812;53.540;9.774;2023-07-09T10:02:24;101955.59;;;29.78;43.05
59951;BME280;45812;53.540;9.774;2023-07-09T10:04:50;101959.38;;;30.04;43.04
59951;BME280;45812;53.540;9.774;2023-07-09T10:07:28;101958.19;;;30.32;41.35
59951;BME280;45812;53.540;9.774;2023-07-09T10:09:55;101962.41;;;30.60;40.54
59951;BME280;45812;53.540;9.774;2023-07-09T10:12:42;101966.94;;;30.87;40.44
59951;BME280;45812;53.540;9.774;2023-07-09T10:15:37;101966.69;;;31.03;37.87
59951;BME280;45812;53.540;9.774;2023-07-09T10:18:28;101961.28;;;31.54;37.63
59951;BME280;45812;53.540;9.774;2023-07-09T10:24:14;101965.97;;;31.89;38.52
59951;BME280;45812;53.540;9.774;2023-07-09T10:26:59;101960.66;;;32.34;37.16
59951;BME280;45812;53.540;9.774;2023-07-09T10:29:52;101955.00;;;32.69;35.55
59951;BME280;45812;53.540;9.774;2023-07-09T10:32:32;101953.41;;;33.12;35.78
59951;BME280;45812;53.540;9.774;2023-07-09T10:35:12;101945.41;;;33.50;33.87
59951;BME280;45812;53.540;9.774;2023-07-09T10:40:27;101953.16;;;34.78;31.69
59951;BME280;45812;53.540;9.774;2023-07-09T10:42:58;101952.13;;;35.11;31.35
59951;BME280;45812;53.540;9.774;2023-07-09T10:45:40;101952.03;;;35.54;31.04
59951;BME280;45812;53.540;9.774;2023-07-09T10:48:41;101955.25;;;36.35;30.11
59951;BME280;45812;53.540;9.774;2023-07-09T10:51:22;101945.59;;;37.32;28.86
59951;BME280;45812;53.540;9.774;2023-07-09T10:54:05;101942.59;;;38.04;26.76
59951;BME280;45812;53.540;9.774;2023-07-09T10:56:35;101938.84;;;38.57;26.67
59951;BME280;45812;53.540;9.774;2023-07-09T10:59:16;101931.00;;;39.02;26.84
59951;BME280;45812;53.540;9.774;2023-07-09T11:01:48;101934.31;;;39.30;26.18
59951;BME280;45812;53.540;9.774;2023-07-09T11:04:25;101935.88;;;39.66;26.77
59951;BME280;45812;53.540;9.774;2023-07-09T11:06:56;101941.66;;;40.37;24.13
59951;BME280;45812;53.540;9.774;2023-07-09T11:09:34;101931.88;;;41.68;23.21
59951;BME280;45812;53.540;9.774;2023-07-09T11:12:10;101935.44;;;42.79;21.69
59951;BME280;45812;53.540;9.774;2023-07-09T11:14:41;101933.97;;;43.53;20.82
59951;BME280;45812;53.540;9.774;2023-07-09T11:17:18;101938.06;;;44.19;20.67
59951;BME280;45812;53.540;9.774;2023-07-09T11:19:53;101924.19;;;44.99;20.04
59951;BME280;45812;53.540;9.774;2023-07-09T11:22:39;101919.41;;;45.88;18.82
59951;BME280;45812;53.540;9.774;2023-07-09T11:25:09;101914.09;;;46.32;16.78
59951;BME280;45812;53.540;9.774;2023-07-09T11:28:01;101912.50;;;46.35;17.48
59951;BME280;45812;53.540;9.774;2023-07-09T11:30:29;101917.50;;;46.45;16.70
59951;BME280;45812;53.540;9.774;2023-07-09T11:32:58;101911.25;;;46.59;16.29
59951;BME280;45812;53.540;9.774;2023-07-09T11:35:26;101918.41;;;46.83;16.37
59951;BME280;45812;53.540;9.774;2023-07-09T11:37:52;101903.78;;;47.07;16.49
59951;BME280;45812;53.540;9.774;2023-07-09T11:40:18;101903.91;;;47.18;15.97
59951;BME280;45812;53.540;9.774;2023-07-09T11:42:53;101908.09;;;47.34;15.27
59951;BME280;45812;53.540;9.774;2023-07-09T11:45:23;101905.50;;;47.56;15.10
59951;BME280;45812;53.540;9.774;2023-07-09T11:50:48;101907.22;;;49.27;15.41
59951;BME280;45812;53.540;9.774;2023-07-09T11:53:38;101895.56;;;49.64;13.67
59951;BME280;45812;53.540;9.774;2023-07-09T11:56:08;101893.88;;;49.95;13.80
59951;BME280;45812;53.540;9.774;2023-07-09T11:58:33;101888.09;;;50.49;13.50
59951;BME280;45812;53.540;9.774;2023-07-09T12:01:00;101889.09;;;50.90;12.97
59951;BME280;45812;53.540;9.774;2023-07-09T12:03:29;101886.75;;;51.41;12.92
59951;BME280;45812;53.540;9.774;2023-07-09T12:06:01;101879.50;;;51.36;13.21
59951;BME280;45812;53.540;9.774;2023-07-09T12:08:33;101885.19;;;51.36;12.26
59951;BME280;45812;53.540;9.774;2023-07-09T12:10:59;101878.69;;;50.73;12.70
59951;BME280;45812;53.540;9.774;2023-07-09T12:13:24;101881.78;;;49.63;13.28
59951;BME280;45812;53.540;9.774;2023-07-09T12:15:49;101876.00;;;48.88;13.94
59951;BME280;45812;53.540;9.774;2023-07-09T12:18:15;101870.75;;;48.90;14.32
59951;BME280;45812;53.540;9.774;2023-07-09T12:20:45;101866.38;;;48.96;14.24
59951;BME280;45812;53.540;9.774;2023-07-09T12:23:28;101858.19;;;48.63;14.26
59951;BME280;45812;53.540;9.774;2023-07-09T12:25:54;101855.59;;;48.26;14.94
59951;BME280;45812;53.540;9.774;2023-07-09T12:28:21;101859.84;;;47.94;14.92
59951;BME280;45812;53.540;9.774;2023-07-09T12:30:52;101861.31;;;48.40;15.86
59951;BME280;45812;53.540;9.774;2023-07-09T12:33:19;101848.25;;;49.47;14.38
59951;BME280;45812;53.540;9.774;2023-07-09T12:35:45;101839.69;;;50.04;14.51
59951;BME280;45812;53.540;9.774;2023-07-09T12:38:19;101844.44;;;51.09;12.80
59951;BME280;45812;53.540;9.774;2023-07-09T12:40:46;101848.41;;;52.04;12.46
59951;BME280;45812;53.540;9.774;2023-07-09T12:43:12;101846.84;;;52.64;12.50
59951;BME280;45812;53.540;9.774;2023-07-09T12:45:38;101845.72;;;53.12;11.56
59951;BME280;45812;53.540;9.774;2023-07-09T12:48:03;101846.63;;;52.52;12.31
59951;BME280;45812;53.540;9.774;2023-07-09T12:50:34;101841.81;;;52.15;12.79
59951;BME280;45812;53.540;9.774;2023-07-09T12:53:14;101836.91;;;52.49;12.18
59951;BME280;45812;53.540;9.774;2023-07-09T12:55:41;101835.53;;;52.88;12.36
59951;BME280;45812;53.540;9.774;2023-07-09T12:58:16;101841.03;;;53.25;11.77
59951;BME280;45812;53.540;9.774;2023-07-09T13:00:48;101837.06;;;53.86;11.57
59951;BME280;45812;53.540;9.774;2023-07-09T13:03:17;101832.25;;;54.42;11.66
59951;BME280;45812;53.540;9.774;2023-07-09T13:06:29;101829.84;;;55.26;10.44
59951;BME280;45812;53.540;9.774;2023-07-09T13:08:58;101838.56;;;56.09;9.67
59951;BME280;45812;53.540;9.774;2023-07-09T13:11:24;101827.31;;;56.69;9.00
59951;BME280;45812;53.540;9.774;2023-07-09T13:13:58;101825.19;;;57.08;9.56
59951;BME280;45812;53.540;9.774;2023-07-09T13:16:24;101825.81;;;57.38;9.43
59951;BME280;45812;53.540;9.774;2023-07-09T13:18:50;101819.34;;;57.59;9.18
59951;BME280;45812;53.540;9.774;2023-07-09T13:21:19;101819.09;;;57.66;9.25